Multan, Pakistan
Current Conditions -  °F | °C
As of 7:56 PM on Friday 19 Dec 2014 (Local Time) from OPMT Reporting Station
Haze Haze  
Wind Chill: 52°   Ceiling: Unl
Heat Index: 52°   Visibility: 0.93mi
Dew Point: 46°   Wind: 0mph
Humidity: 82%   Direction: NA
Pressure: 30.18"   Gusts: NA
Location:  30.2°N, 71.45°E
Report Text: OPMT 191456Z 00000KT 1500 BR NSC 11/08 Q1022 TEMPO 1200
Loading
Personal Weather Stations






























Interactive Weather Map New forecast layout! Learn more

10-Day Weather Forecast

Advertisements
Track Severe Weather on mobile